Time;durP1;ratioP1;P1;durP2;ratioP2;P2;SDS_P1;SDS_P2;PMS_P1;PMS_P2;Temp;Humidity;BMP_temperature;BMP_pressure;BME280_temperature;BME280_humidity;BME280_pressure;Samples;Min_cycle;Max_cycle;Signal;HPM_P1;HPM_P2
2022/10/21 00:00:32;;;;;;;20.17;17.97;;;3.00;99.90;2.10;100953;;;;591848;239;24067;-82
2022/10/21 00:03:04;;;;;;;23.03;19.33;;;3.00;99.90;2.00;100949;;;;591990;239;24028;-85
2022/10/21 00:05:28;;;;;;;24.37;18.50;;;2.90;99.90;2.00;100946;;;;591619;239;25105;-84
2022/10/21 00:08:00;;;;;;;24.20;19.10;;;2.90;99.90;2.00;100945;;;;602189;239;24027;-80
2022/10/21 00:10:27;;;;;;;26.10;19.07;;;2.90;99.90;2.00;100951;;;;591655;239;24020;-79
2022/10/21 00:12:52;;;;;;;27.63;18.97;;;2.90;99.90;2.00;100945;;;;591424;239;24058;-78
2022/10/21 00:15:20;;;;;;;23.90;18.90;;;2.90;99.90;2.00;100940;;;;591437;239;24012;-78
2022/10/21 00:17:48;;;;;;;22.73;18.00;;;2.90;99.90;2.00;100936;;;;593434;238;24026;-80
2022/10/21 00:20:16;;;;;;;23.23;18.97;;;2.90;99.90;1.90;100926;;;;592349;238;24067;-81
2022/10/21 00:22:44;;;;;;;23.57;19.83;;;2.90;99.90;1.90;100914;;;;592203;238;24028;-82
2022/10/21 00:25:12;;;;;;;23.70;19.20;;;2.80;99.90;2.00;100905;;;;591949;238;24039;-79
2022/10/21 00:27:43;;;;;;;25.07;19.17;;;2.80;99.90;2.00;100901;;;;592575;238;24073;-84
2022/10/21 00:30:11;;;;;;;24.23;19.93;;;2.90;99.90;2.00;100895;;;;592328;238;24067;-80
2022/10/21 00:32:36;;;;;;;22.97;18.57;;;2.90;99.90;2.00;100899;;;;592133;238;24027;-80
2022/10/21 00:35:04;;;;;;;22.00;18.20;;;2.90;99.90;2.00;100906;;;;592201;238;24083;-86
2022/10/21 00:37:36;;;;;;;23.37;19.57;;;2.90;99.90;2.00;100901;;;;592087;238;24131;-81
2022/10/21 00:40:00;;;;;;;24.97;20.53;;;2.90;99.90;2.00;100902;;;;592494;238;24028;-84
2022/10/21 00:42:31;;;;;;;24.73;19.80;;;2.90;99.90;2.00;100885;;;;592096;238;24056;-81
2022/10/21 00:45:05;;;;;;;24.47;19.97;;;2.90;99.90;2.00;100885;;;;592072;238;24049;-80
2022/10/21 00:47:51;;;;;;;27.17;19.63;;;2.90;99.90;1.90;100896;;;;591855;238;24007;-81
2022/10/21 00:50:37;;;;;;;25.93;20.20;;;2.90;99.90;1.90;100885;;;;591826;238;24022;-79
2022/10/21 00:53:05;;;;;;;22.83;19.90;;;2.80;99.90;1.90;100884;;;;592089;239;24012;-80
2022/10/21 00:55:33;;;;;;;23.70;19.60;;;2.80;99.90;1.90;100874;;;;591917;239;24003;-79
2022/10/21 00:58:01;;;;;;;26.00;19.00;;;2.80;99.90;1.80;100856;;;;591891;239;24057;-78
2022/10/21 01:00:29;;;;;;;22.83;18.43;;;2.70;99.90;1.80;100845;;;;591927;239;24005;-80
2022/10/21 01:02:57;;;;;;;25.30;20.30;;;2.70;99.90;1.80;100832;;;;592011;239;24000;-78
2022/10/21 01:05:25;;;;;;;27.17;22.27;;;2.70;99.90;1.70;100844;;;;592057;239;24029;-78
2022/10/21 01:07:55;;;;;;;26.03;21.23;;;2.60;99.90;1.60;100833;;;;592015;239;25115;-80
2022/10/21 01:10:20;;;;;;;27.23;21.63;;;2.60;99.90;1.60;100826;;;;591770;239;25095;-79
2022/10/21 01:12:57;;;;;;;26.17;21.93;;;2.50;99.90;1.50;100828;;;;591606;239;24071;-79
2022/10/21 01:15:31;;;;;;;31.10;21.83;;;2.40;99.90;1.50;100821;;;;591170;239;24007;-81
2022/10/21 01:18:38;;;;;;;31.77;23.27;;;2.40;99.90;1.50;100815;;;;591496;239;24013;-79
2022/10/21 01:21:36;;;;;;;27.10;22.97;;;2.40;99.90;1.40;100816;;;;591904;239;24008;-80
2022/10/21 01:24:06;;;;;;;30.60;23.00;;;2.30;99.90;1.40;100801;;;;592107;239;24023;-79
2022/10/21 01:27:02;;;;;;;31.27;24.10;;;2.30;99.90;1.40;100794;;;;591612;239;24038;-81
2022/10/21 01:29:35;;;;;;;29.30;23.43;;;2.30;99.90;1.30;100795;;;;593149;238;24011;-81
2022/10/21 01:32:34;;;;;;;29.27;24.63;;;2.20;99.90;1.30;100791;;;;591724;238;24015;-79
2022/10/21 01:35:17;;;;;;;29.80;23.53;;;2.10;99.90;1.30;100790;;;;592932;238;24044;-78
2022/10/21 01:38:06;;;;;;;33.00;23.30;;;2.10;99.90;1.20;100782;;;;592873;238;23953;-78
2022/10/21 01:40:36;;;;;;;33.37;24.17;;;2.10;99.90;1.20;100785;;;;601870;238;24020;-78
2022/10/21 01:43:07;;;;;;;30.77;24.73;;;2.10;99.90;1.20;100784;;;;591838;238;24008;-79
2022/10/21 01:45:40;;;;;;;31.87;24.00;;;2.10;99.90;1.20;100786;;;;591689;238;24037;-78
2022/10/21 01:48:12;;;;;;;32.23;25.13;;;2.00;99.90;1.10;100788;;;;590539;238;24027;-79
2022/10/21 01:50:46;;;;;;;27.37;22.50;;;2.00;99.90;1.10;100788;;;;592238;238;24031;-77
2022/10/21 01:53:14;;;;;;;29.33;24.07;;;2.00;99.90;1.00;100782;;;;592116;238;24068;-78
2022/10/21 01:55:43;;;;;;;29.10;23.47;;;2.00;99.90;1.00;100776;;;;592295;238;24117;-77
2022/10/21 01:58:18;;;;;;;30.27;22.93;;;1.90;99.90;1.00;100777;;;;592181;238;24046;-79
2022/10/21 02:00:45;;;;;;;29.97;23.70;;;1.90;99.90;1.00;100772;;;;592137;238;24046;-79
2022/10/21 02:03:11;;;;;;;26.70;22.87;;;1.90;99.90;1.00;100783;;;;592068;239;24113;-79
2022/10/21 02:05:43;;;;;;;28.60;23.30;;;1.90;99.90;0.90;100767;;;;591899;239;24019;-77
2022/10/21 02:08:08;;;;;;;27.63;24.03;;;1.90;99.90;0.90;100766;;;;591697;239;24091;-78
2022/10/21 02:10:38;;;;;;;29.27;22.93;;;1.90;99.90;0.90;100765;;;;591940;239;24016;-79
2022/10/21 02:13:06;;;;;;;30.63;23.17;;;1.80;99.90;0.90;100773;;;;591164;239;24010;-84
2022/10/21 02:15:37;;;;;;;28.83;22.93;;;1.80;99.90;0.90;100766;;;;591455;239;24032;-80
2022/10/21 02:18:02;;;;;;;30.20;23.33;;;1.80;99.90;0.80;100766;;;;591570;239;24020;-85
2022/10/21 02:20:30;;;;;;;32.03;25.00;;;1.80;99.90;0.80;100766;;;;591271;239;24072;-80
2022/10/21 02:23:02;;;;;;;29.47;22.20;;;1.80;99.90;0.80;100762;;;;591664;239;24015;-81
2022/10/21 02:25:26;;;;;;;27.67;22.60;;;1.80;99.90;0.80;100752;;;;600766;236;24020;-78
2022/10/21 02:27:56;;;;;;;29.43;22.17;;;1.80;99.90;0.80;100750;;;;591458;239;24059;-79
2022/10/21 02:30:24;;;;;;;29.53;23.67;;;1.70;99.90;0.80;100742;;;;591030;239;24011;-78
2022/10/21 02:33:10;;;;;;;31.40;22.67;;;1.70;99.90;0.80;100734;;;;587991;239;25055;-79
2022/10/21 02:35:54;;;;;;;32.93;23.40;;;1.70;99.90;0.80;100734;;;;591159;239;24055;-80
2022/10/21 02:38:33;;;;;;;28.13;22.27;;;1.70;99.90;0.80;100731;;;;591272;239;24035;-77
2022/10/21 02:41:04;;;;;;;26.10;21.50;;;1.70;99.90;0.80;100725;;;;592579;238;24005;-79
2022/10/21 02:43:30;;;;;;;25.33;20.60;;;1.70;99.90;0.70;100719;;;;592958;238;24050;-78
2022/10/21 02:46:01;;;;;;;27.17;21.50;;;1.70;99.90;0.70;100725;;;;592394;238;24016;-78
2022/10/21 02:48:29;;;;;;;26.50;21.13;;;1.70;99.90;0.70;100723;;;;592532;238;24019;-79
2022/10/21 02:50:57;;;;;;;26.57;20.63;;;1.70;99.90;0.70;100720;;;;592413;238;24052;-78
2022/10/21 02:53:26;;;;;;;27.17;21.00;;;1.60;99.90;0.60;100710;;;;592093;238;24051;-81
2022/10/21 02:55:54;;;;;;;24.73;20.10;;;1.60;99.90;0.60;100717;;;;592055;238;25058;-80
2022/10/21 02:58:21;;;;;;;27.27;19.27;;;1.60;99.90;0.60;100719;;;;591934;238;24081;-78
2022/10/21 03:00:49;;;;;;;26.30;19.80;;;1.60;99.90;0.60;100701;;;;591872;238;24021;-79
2022/10/21 03:03:17;;;;;;;28.67;18.87;;;1.60;99.90;0.70;100703;;;;591801;238;24016;-79
2022/10/21 03:05:49;;;;;;;28.00;20.33;;;1.60;99.90;0.70;100691;;;;591832;238;24044;-79
2022/10/21 03:08:16;;;;;;;25.27;20.00;;;1.60;99.90;0.70;100699;;;;592407;238;24014;-81
2022/10/21 03:10:41;;;;;;;22.63;19.70;;;1.60;99.90;0.80;100689;;;;592042;238;24036;-81
2022/10/21 03:13:12;;;;;;;28.03;19.93;;;1.70;99.90;0.80;100689;;;;591765;238;24023;-78
2022/10/21 03:15:37;;;;;;;27.00;19.97;;;1.70;99.90;0.90;100688;;;;591601;239;24010;-80
2022/10/21 03:18:05;;;;;;;28.07;20.37;;;1.80;99.90;0.90;100681;;;;591716;239;24050;-79
2022/10/21 03:20:33;;;;;;;24.77;19.63;;;1.80;99.90;0.90;100670;;;;591152;239;24018;-79
2022/10/21 03:23:01;;;;;;;26.93;19.33;;;1.80;99.90;1.00;100673;;;;591174;239;24062;-79
2022/10/21 03:25:29;;;;;;;28.27;20.73;;;1.90;99.90;1.00;100662;;;;591227;239;24001;-78
2022/10/21 03:27:56;;;;;;;26.57;20.30;;;1.90;99.90;1.10;100658;;;;591133;239;24020;-79
2022/10/21 03:30:24;;;;;;;31.83;20.93;;;2.00;99.90;1.10;100648;;;;591046;239;24062;-78
2022/10/21 03:32:52;;;;;;;29.53;20.77;;;2.00;99.90;1.10;100659;;;;591216;239;24016;-78
2022/10/21 03:35:20;;;;;;;27.17;21.57;;;2.00;99.90;1.10;100653;;;;592037;239;25055;-78
2022/10/21 03:37:48;;;;;;;26.37;20.03;;;2.10;99.90;1.10;100661;;;;591567;239;24005;-78
2022/10/21 03:40:16;;;;;;;28.47;21.53;;;2.10;99.90;1.20;100666;;;;591542;239;24041;-83
2022/10/21 03:42:45;;;;;;;30.50;21.70;;;2.10;99.90;1.20;100661;;;;591506;239;24017;-79
2022/10/21 03:45:13;;;;;;;27.93;21.37;;;2.10;99.90;1.20;100663;;;;591550;239;24015;-80
2022/10/21 03:47:41;;;;;;;26.57;21.07;;;2.10;99.90;1.20;100671;;;;591507;239;24045;-80
2022/10/21 03:50:09;;;;;;;27.70;20.83;;;2.20;99.90;1.30;100666;;;;591595;236;24005;-82
2022/10/21 03:52:38;;;;;;;26.47;20.40;;;2.20;99.90;1.30;100663;;;;593108;238;24042;-81
2022/10/21 03:55:07;;;;;;;26.87;20.40;;;2.20;99.90;1.30;100656;;;;592582;238;24021;-80
2022/10/21 03:57:35;;;;;;;27.07;20.07;;;2.20;99.90;1.30;100663;;;;592329;238;24046;-79
2022/10/21 04:00:03;;;;;;;29.60;22.10;;;2.20;99.90;1.30;100653;;;;592245;238;24085;-79
2022/10/21 04:02:31;;;;;;;27.03;20.83;;;2.20;99.90;1.30;100650;;;;592511;238;24017;-78
2022/10/21 04:04:59;;;;;;;24.83;21.20;;;2.20;99.90;1.30;100654;;;;592055;238;25081;-83
2022/10/21 04:07:27;;;;;;;28.13;21.57;;;2.20;99.90;1.30;100658;;;;592079;238;24019;-82
2022/10/21 04:09:55;;;;;;;29.53;21.47;;;2.30;99.90;1.40;100651;;;;591885;238;24031;-79
2022/10/21 04:12:23;;;;;;;26.43;19.90;;;2.30;99.90;1.40;100651;;;;591811;238;24007;-87
2022/10/21 04:14:52;;;;;;;27.37;20.50;;;2.40;99.90;1.50;100650;;;;591792;238;24016;-84
2022/10/21 04:17:20;;;;;;;30.47;20.57;;;2.40;99.90;1.50;100642;;;;591787;238;24102;-78
2022/10/21 04:19:48;;;;;;;30.83;21.47;;;2.40;99.90;1.50;100639;;;;591830;238;23995;-78
2022/10/21 04:22:16;;;;;;;25.77;19.80;;;2.50;99.90;1.50;100631;;;;591778;238;24044;-80
2022/10/21 04:24:44;;;;;;;24.47;19.53;;;2.50;99.90;1.50;100620;;;;591875;238;24018;-87
2022/10/21 04:27:12;;;;;;;29.53;19.40;;;2.50;99.90;1.50;100621;;;;591689;239;24024;-78
2022/10/21 04:29:40;;;;;;;27.60;19.97;;;2.50;99.90;1.50;100613;;;;591580;239;24045;-78
2022/10/21 04:32:09;;;;;;;26.30;19.60;;;2.50;99.90;1.50;100616;;;;591079;239;24013;-78
2022/10/21 04:34:36;;;;;;;26.10;19.40;;;2.40;99.90;1.50;100616;;;;591307;239;24048;-78
2022/10/21 04:37:04;;;;;;;25.67;19.57;;;2.40;99.90;1.40;100614;;;;591628;239;24025;-78
2022/10/21 04:39:32;;;;;;;29.30;21.03;;;2.40;99.90;1.40;100625;;;;591534;239;24000;-79
2022/10/21 04:42:00;;;;;;;25.10;18.73;;;2.40;99.90;1.40;100611;;;;591559;239;24025;-79
2022/10/21 04:44:28;;;;;;;31.70;19.37;;;2.40;99.90;1.40;100604;;;;591555;239;24005;-79
2022/10/21 04:46:56;;;;;;;25.77;19.07;;;2.30;99.90;1.30;100592;;;;591585;239;24048;-79
2022/10/21 04:49:24;;;;;;;25.77;18.90;;;2.30;99.90;1.30;100571;;;;591574;239;24016;-79
2022/10/21 04:51:52;;;;;;;25.17;19.03;;;2.30;99.90;1.30;100573;;;;591507;239;24005;-79
2022/10/21 04:54:20;;;;;;;24.57;19.20;;;2.20;99.90;1.20;100567;;;;591605;239;24043;-79
2022/10/21 04:56:48;;;;;;;24.97;19.73;;;2.20;99.90;1.20;100560;;;;591537;239;24043;-79
2022/10/21 04:59:16;;;;;;;27.37;19.10;;;2.10;99.90;1.10;100562;;;;589591;234;24009;-81
2022/10/21 05:01:43;;;;;;;25.80;19.73;;;2.10;99.90;1.10;100562;;;;566838;246;24123;-83
2022/10/21 05:04:12;;;;;;;27.70;19.33;;;2.00;99.90;1.00;100558;;;;559736;252;24104;-82
2022/10/21 05:06:40;;;;;;;38.57;21.67;;;2.00;99.90;1.00;100547;;;;559133;252;24120;-82
2022/10/21 05:09:08;;;;;;;27.60;20.90;;;2.00;99.90;1.00;100545;;;;559177;252;24103;-83
2022/10/21 05:11:36;;;;;;;28.93;20.77;;;2.00;99.90;1.00;100542;;;;558844;251;24145;-84
2022/10/21 05:14:04;;;;;;;29.70;19.33;;;1.90;99.90;1.00;100536;;;;558843;252;24116;-84
2022/10/21 05:16:32;;;;;;;26.77;20.10;;;1.90;99.90;0.90;100537;;;;558327;252;24141;-84
2022/10/21 05:19:00;;;;;;;24.33;20.07;;;1.90;99.90;1.00;100536;;;;558460;252;24243;-84
2022/10/21 05:21:27;;;;;;;24.43;19.47;;;1.90;99.90;1.00;100541;;;;558184;253;24149;-85
2022/10/21 05:23:55;;;;;;;26.20;20.17;;;1.90;99.90;1.00;100531;;;;558186;253;24138;-84
2022/10/21 05:26:23;;;;;;;31.63;20.40;;;2.00;99.90;1.00;100531;;;;548552;257;24118;-84
2022/10/21 05:28:51;;;;;;;36.43;21.70;;;2.00;99.90;1.10;100528;;;;546618;258;24163;-83
2022/10/21 05:31:19;;;;;;;35.00;22.53;;;2.00;99.90;1.10;100520;;;;558702;253;24107;-82
2022/10/21 05:33:47;;;;;;;36.00;21.13;;;2.10;99.90;1.20;100522;;;;556376;256;24150;-82
2022/10/21 05:36:15;;;;;;;37.87;24.20;;;2.10;99.90;1.20;100517;;;;560148;252;24242;-83
2022/10/21 05:38:43;;;;;;;33.17;22.87;;;2.20;99.90;1.30;100519;;;;548898;257;24135;-83
2022/10/21 05:41:11;;;;;;;40.83;22.73;;;2.20;99.90;1.30;100518;;;;558748;253;24123;-83
2022/10/21 05:43:39;;;;;;;28.83;21.70;;;2.30;99.90;1.40;100522;;;;556563;255;24119;-83
2022/10/21 05:46:08;;;;;;;28.53;21.40;;;2.40;99.90;1.40;100524;;;;558734;253;24143;-83
2022/10/21 05:48:39;;;;;;;28.33;20.20;;;2.40;99.90;1.50;100507;;;;548693;257;24175;-84
2022/10/21 05:51:07;;;;;;;42.27;23.03;;;2.40;99.90;1.60;100516;;;;548443;257;24217;-84
2022/10/21 05:53:32;;;;;;;45.67;22.47;;;2.50;99.90;1.60;100508;;;;546682;257;24237;-84
2022/10/21 05:56:00;;;;;;;29.70;21.53;;;2.60;99.90;1.70;100509;;;;556161;256;24130;-82
2022/10/21 05:58:31;;;;;;;32.27;21.00;;;2.60;99.90;1.80;100515;;;;565441;248;24114;-83
2022/10/21 06:00:56;;;;;;;38.27;20.07;;;2.70;99.90;1.80;100520;;;;548145;257;24147;-83
2022/10/21 06:03:28;;;;;;;37.50;21.23;;;2.80;99.90;1.90;100520;;;;556489;253;24139;-81
2022/10/21 06:05:52;;;;;;;30.97;20.80;;;2.80;99.90;2.00;100517;;;;560271;252;24170;-82
2022/10/21 06:08:20;;;;;;;38.30;20.90;;;2.90;99.90;2.00;100513;;;;544605;257;24144;-81
2022/10/21 06:10:48;;;;;;;31.63;17.13;;;2.90;99.90;2.10;100501;;;;556734;257;24139;-82
2022/10/21 06:13:16;;;;;;;40.15;18.50;;;3.00;99.90;2.10;100500;;;;555386;252;35445;-83
2022/10/21 06:15:44;;;;;;;29.63;12.20;;;3.10;99.90;2.20;100492;;;;545427;257;24150;-84
2022/10/21 06:18:15;;;;;;;23.47;11.73;;;3.20;99.90;2.30;100490;;;;557384;257;24145;-83
2022/10/21 06:20:40;;;;;;;22.73;11.57;;;3.20;99.90;2.30;100499;;;;556887;257;24151;-81
2022/10/21 06:23:11;;;;;;;23.93;13.37;;;3.30;99.90;2.40;100499;;;;556869;256;24146;-83
2022/10/21 06:25:36;;;;;;;21.90;11.10;;;3.30;99.90;2.50;100489;;;;560476;250;24140;-83
2022/10/21 06:28:04;;;;;;;21.40;11.40;;;3.40;99.90;2.60;100491;;;;548786;255;24166;-82
2022/10/21 06:30:32;;;;;;;21.77;12.30;;;3.50;99.90;2.60;100495;;;;558994;252;24089;-82
2022/10/21 06:33:01;;;;;;;24.93;13.03;;;3.70;99.90;2.70;100493;;;;548513;257;24210;-82
2022/10/21 06:35:29;;;;;;;22.20;12.47;;;3.60;99.90;2.80;100487;;;;548104;258;24146;-82
2022/10/21 06:37:57;;;;;;;19.37;12.53;;;3.70;99.90;2.90;100497;;;;558683;253;24107;-82
2022/10/21 06:40:25;;;;;;;28.50;11.47;;;3.80;99.90;3.00;100483;;;;548783;257;24154;-83
2022/10/21 06:42:53;;;;;;;28.20;11.77;;;4.00;99.90;3.10;100485;;;;559283;253;24117;-83
2022/10/21 06:45:21;;;;;;;21.40;10.90;;;3.90;99.90;3.10;100489;;;;558837;253;24128;-83
2022/10/21 06:47:49;;;;;;;24.83;11.47;;;4.00;99.90;3.20;100468;;;;558576;253;24114;-83
2022/10/21 06:50:17;;;;;;;23.17;11.13;;;4.10;99.90;3.30;100481;;;;558420;253;24142;-82
2022/10/21 06:52:47;;;;;;;23.77;11.17;;;4.20;99.90;3.30;100476;;;;558343;253;24107;-81
2022/10/21 06:55:13;;;;;;;21.33;11.57;;;4.20;99.90;3.50;100471;;;;548578;256;24184;-84
2022/10/21 06:57:44;;;;;;;23.80;12.23;;;4.30;99.90;3.50;100468;;;;557210;255;24144;-83
2022/10/21 07:00:09;;;;;;;23.27;11.97;;;4.40;99.90;3.60;100454;;;;546967;257;24200;-83
2022/10/21 07:02:37;;;;;;;18.83;10.93;;;4.50;99.90;3.80;100452;;;;557107;255;24245;-83
2022/10/21 07:05:08;;;;;;;28.30;15.10;;;4.70;99.90;3.90;100451;;;;551323;256;35648;-81
2022/10/21 07:07:36;;;;;;;34.40;13.27;;;4.90;99.90;4.00;100445;;;;565583;253;24132;-80
2022/10/21 07:10:01;;;;;;;26.33;10.27;;;4.90;99.90;4.10;100435;;;;559989;252;25209;-81
2022/10/21 07:12:29;;;;;;;15.47;9.77;;;5.00;99.90;4.20;100424;;;;558728;253;24163;-82
2022/10/21 07:14:57;;;;;;;13.40;9.63;;;5.10;99.90;4.20;100428;;;;555849;256;24177;-82
2022/10/21 07:17:26;;;;;;;18.43;10.67;;;5.10;99.90;4.20;100436;;;;558572;253;24146;-81
2022/10/21 07:19:54;;;;;;;19.70;9.57;;;5.10;99.90;4.30;100426;;;;556465;252;24187;-82
2022/10/21 07:22:22;;;;;;;18.03;10.90;;;5.10;99.90;4.20;100418;;;;556789;255;24149;-82
2022/10/21 07:24:49;;;;;;;11.63;7.43;;;5.10;99.90;4.20;100417;;;;556222;257;24142;-82
2022/10/21 07:27:17;;;;;;;10.67;8.07;;;5.10;99.90;4.20;100410;;;;559807;252;24152;-83
2022/10/21 07:29:46;;;;;;;21.13;10.00;;;5.10;99.90;4.20;100413;;;;559258;255;24166;-82
2022/10/21 07:32:15;;;;;;;16.80;9.10;;;5.10;99.90;4.20;100398;;;;547260;258;24163;-82
2022/10/21 07:34:43;;;;;;;20.30;9.47;;;5.10;99.90;4.30;100401;;;;578202;247;24108;-83
2022/10/21 07:37:11;;;;;;;14.87;9.77;;;5.20;99.90;4.40;100405;;;;559134;252;24126;-82
2022/10/21 07:39:39;;;;;;;15.47;8.70;;;5.20;99.90;4.40;100400;;;;559179;252;25482;-82
2022/10/21 07:42:08;;;;;;;12.57;8.90;;;5.30;99.90;4.50;100401;;;;558695;255;24165;-84
2022/10/21 07:44:35;;;;;;;15.97;9.87;;;5.40;99.90;4.60;100403;;;;554686;257;24216;-82
2022/10/21 07:47:02;;;;;;;15.13;8.47;;;5.50;99.90;4.70;100410;;;;558726;253;24099;-82
2022/10/21 07:49:30;;;;;;;18.00;9.30;;;5.60;99.90;4.70;100418;;;;557017;255;24148;-83
2022/10/21 07:51:58;;;;;;;17.30;9.93;;;5.60;99.90;4.80;100417;;;;556458;256;24142;-82
2022/10/21 07:54:27;;;;;;;16.97;9.37;;;5.70;99.90;4.90;100416;;;;557156;255;24150;-82
2022/10/21 07:56:59;;;;;;;13.83;9.77;;;5.90;99.90;5.00;100408;;;;556476;256;24190;-81
2022/10/21 07:59:25;;;;;;;12.87;8.63;;;5.80;99.90;5.10;100406;;;;566724;247;25159;-82
2022/10/21 08:01:56;;;;;;;14.23;8.13;;;6.00;99.90;5.20;100398;;;;558260;255;24149;-83
2022/10/21 08:04:22;;;;;;;20.80;10.07;;;6.00;99.90;5.20;100387;;;;548062;257;24197;-83
2022/10/21 08:06:49;;;;;;;14.90;7.63;;;6.00;99.90;5.30;100388;;;;555784;256;24228;-84
2022/10/21 08:09:17;;;;;;;17.77;11.30;;;6.10;99.90;5.30;100385;;;;563542;252;24110;-84
2022/10/21 08:11:48;;;;;;;13.77;8.90;;;6.20;99.90;5.30;100378;;;;568614;248;24196;-83
2022/10/21 08:14:17;;;;;;;12.43;8.20;;;6.20;99.90;5.30;100376;;;;570335;248;24147;-84
2022/10/21 08:16:44;;;;;;;20.00;12.20;;;6.20;99.90;5.30;100380;;;;558455;253;24218;-86
2022/10/21 08:19:09;;;;;;;14.10;10.03;;;6.20;99.90;5.30;100378;;;;548584;257;24223;-84
2022/10/21 08:21:37;;;;;;;16.80;10.27;;;6.20;99.90;5.40;100371;;;;556110;252;24193;-83
2022/10/21 08:24:05;;;;;;;16.47;10.07;;;6.30;99.90;5.60;100367;;;;558655;253;24156;-80
2022/10/21 08:26:33;;;;;;;14.10;10.20;;;6.40;99.90;5.70;100364;;;;558615;253;24133;-82
2022/10/21 08:29:03;;;;;;;16.10;9.50;;;6.50;99.90;5.80;100365;;;;567021;251;24120;-83
2022/10/21 08:31:31;;;;;;;14.27;9.63;;;6.60;99.90;5.90;100373;;;;556305;255;24133;-82
2022/10/21 08:34:02;;;;;;;15.33;9.90;;;6.70;99.90;6.00;100372;;;;548240;258;24143;-81
2022/10/21 08:36:30;;;;;;;22.73;10.53;;;6.80;99.90;6.00;100377;;;;548289;258;24126;-82
2022/10/21 08:38:58;;;;;;;26.87;10.33;;;6.90;99.90;6.20;100377;;;;559959;252;24168;-83
2022/10/21 08:41:29;;;;;;;20.10;11.07;;;7.10;99.90;6.30;100386;;;;549733;257;24194;-80
2022/10/21 08:44:00;;;;;;;17.87;10.13;;;7.10;99.90;6.50;100375;;;;555745;251;24167;-85
2022/10/21 08:46:28;;;;;;;18.93;11.43;;;7.30;99.90;6.80;100380;;;;559383;252;24115;-82
2022/10/21 08:49:04;;;;;;;17.23;10.93;;;7.50;99.90;7.10;100387;;;;557766;257;24199;-83
2022/10/21 08:51:35;;;;;;;17.80;11.23;;;7.90;99.90;7.50;100384;;;;558680;252;24127;-81
2022/10/21 08:54:06;;;;;;;21.13;11.23;;;8.20;99.90;7.70;100378;;;;559061;252;24106;-80
2022/10/21 08:56:37;;;;;;;19.00;11.63;;;8.50;99.90;8.00;100377;;;;558756;253;24127;-83
2022/10/21 08:59:04;;;;;;;14.70;10.47;;;8.80;99.90;8.30;100375;;;;559035;251;24226;-81
2022/10/21 09:01:38;;;;;;;16.33;9.60;;;9.10;99.90;8.60;100377;;;;558779;252;24140;-81
2022/10/21 09:04:15;;;;;;;14.47;9.47;;;9.30;99.90;8.60;100373;;;;558423;252;24174;-81
2022/10/21 09:07:13;;;;;;;16.17;9.87;;;9.40;99.90;8.50;100365;;;;558436;255;24165;-81
2022/10/21 09:09:49;;;;;;;15.33;9.67;;;9.40;99.90;8.50;100362;;;;548790;255;24164;-82
2022/10/21 09:12:33;;;;;;;15.67;8.90;;;9.50;99.90;8.70;100355;;;;549061;257;24157;-82
2022/10/21 09:15:19;;;;;;;14.00;9.07;;;9.50;99.90;8.80;100346;;;;549871;261;24189;-82
2022/10/21 09:17:52;;;;;;;12.17;9.27;;;9.60;99.90;8.90;100362;;;;546993;257;24202;-81
2022/10/21 09:20:36;;;;;;;17.83;8.93;;;9.60;99.90;8.80;100345;;;;548214;255;24158;-81
2022/10/21 09:23:37;;;;;;;15.13;9.17;;;9.60;99.90;8.70;100355;;;;554845;253;24130;-81
2022/10/21 09:26:17;;;;;;;16.77;8.70;;;9.40;99.90;8.50;100353;;;;547979;256;24136;-82
2022/10/21 09:28:46;;;;;;;14.77;9.60;;;9.20;99.90;8.30;100360;;;;559230;253;24138;-84
2022/10/21 09:31:20;;;;;;;22.17;10.50;;;9.10;99.90;8.30;100367;;;;554265;252;24121;-81
2022/10/21 09:33:54;;;;;;;13.50;9.17;;;9.10;99.90;8.30;100364;;;;567115;247;24109;-82
2022/10/21 09:36:34;;;;;;;13.90;10.33;;;9.10;99.90;8.20;100357;;;;571868;246;24111;-81
2022/10/21 09:39:08;;;;;;;18.83;9.83;;;9.00;99.90;8.20;100365;;;;568795;248;24095;-82
2022/10/21 09:41:42;;;;;;;14.07;9.17;;;9.00;99.90;8.20;100357;;;;548078;257;24193;-81
2022/10/21 09:44:21;;;;;;;17.27;9.30;;;8.90;99.90;8.10;100356;;;;548197;257;24175;-85
2022/10/21 09:46:53;;;;;;;14.20;8.40;;;8.90;99.90;7.90;100353;;;;548630;257;24176;-82
2022/10/21 09:49:29;;;;;;;17.20;10.30;;;8.70;99.90;7.80;100346;;;;558562;252;24144;-81
2022/10/21 09:52:00;;;;;;;16.00;9.90;;;8.70;99.90;7.90;100353;;;;568230;252;24159;-82
2022/10/21 09:54:28;;;;;;;14.67;10.33;;;8.70;99.90;8.00;100344;;;;559246;252;24175;-81
2022/10/21 09:57:36;;;;;;;17.43;9.93;;;8.80;99.90;8.20;100347;;;;548339;257;24213;-83
2022/10/21 10:00:07;;;;;;;15.30;9.13;;;8.90;99.90;8.30;100349;;;;559076;252;24130;-84
2022/10/21 10:02:37;;;;;;;18.27;10.50;;;9.10;99.90;8.40;100343;;;;546466;258;24157;-84
2022/10/21 10:05:23;;;;;;;19.30;10.53;;;9.10;99.90;8.50;100339;;;;569029;248;24114;-84
2022/10/21 10:07:51;;;;;;;19.40;9.80;;;9.20;99.90;8.70;100336;;;;547791;257;24204;-82
2022/10/21 10:10:27;;;;;;;14.93;10.50;;;9.40;99.90;8.80;100323;;;;556958;255;24157;-84
2022/10/21 10:12:56;;;;;;;16.87;10.07;;;9.50;99.90;8.90;100324;;;;548043;257;24158;-83
2022/10/21 10:15:32;;;;;;;13.33;10.30;;;9.60;99.90;9.10;100323;;;;556851;253;24168;-84
2022/10/21 10:18:00;;;;;;;14.20;9.90;;;9.80;99.90;9.10;100312;;;;560037;252;24149;-83
2022/10/21 10:20:32;;;;;;;15.53;10.10;;;9.90;99.90;9.10;100316;;;;566952;252;24136;-83
2022/10/21 10:23:08;;;;;;;14.73;10.03;;;9.80;99.90;9.00;100304;;;;559780;251;24128;-83
2022/10/21 10:25:35;;;;;;;17.20;10.60;;;9.80;99.90;8.90;100292;;;;560204;251;24151;-83
2022/10/21 10:28:08;;;;;;;15.77;10.30;;;9.70;99.90;8.90;100291;;;;560359;252;24141;-82
2022/10/21 10:30:42;;;;;;;21.37;11.97;;;9.60;99.90;8.80;100291;;;;559870;252;24164;-84
2022/10/21 10:33:10;;;;;;;15.83;11.27;;;9.60;99.90;8.80;100285;;;;559695;252;24141;-84
2022/10/21 10:35:40;;;;;;;12.93;9.40;;;9.60;99.90;8.80;100288;;;;559676;252;24153;-84
2022/10/21 10:38:06;;;;;;;16.17;11.37;;;9.60;99.90;8.80;100285;;;;558054;253;24219;-82
2022/10/21 10:40:38;;;;;;;18.77;11.50;;;9.60;99.90;8.90;100288;;;;558190;253;24168;-84
2022/10/21 10:43:05;;;;;;;15.57;10.10;;;9.70;99.90;9.00;100281;;;;556802;255;24215;-85
2022/10/21 10:45:33;;;;;;;15.17;10.00;;;9.70;99.90;8.90;100280;;;;547632;257;24293;-84
2022/10/21 10:48:05;;;;;;;16.83;10.30;;;9.70;99.90;8.90;100280;;;;555495;257;24266;-82
2022/10/21 10:50:45;;;;;;;13.87;9.63;;;9.70;99.90;8.90;100282;;;;555858;258;24188;-82
2022/10/21 10:53:40;;;;;;;15.70;9.93;;;9.70;99.90;8.90;100286;;;;547564;258;24147;-82
2022/10/21 10:56:23;;;;;;;13.03;10.07;;;9.70;99.90;8.80;100273;;;;546656;258;24206;-83
2022/10/21 10:58:56;;;;;;;14.37;9.83;;;9.60;99.90;8.70;100266;;;;557350;253;24146;-80
2022/10/21 11:01:24;;;;;;;14.17;9.57;;;9.50;99.90;8.70;100266;;;;557017;256;24165;-82
2022/10/21 11:03:55;;;;;;;16.90;11.10;;;9.40;99.90;8.60;100261;;;;567345;247;24141;-82
2022/10/21 11:06:29;;;;;;;18.70;10.70;;;9.40;99.90;8.50;100263;;;;549444;257;24158;-83
2022/10/21 11:08:57;;;;;;;17.30;11.43;;;9.30;99.90;8.50;100259;;;;543925;257;24191;-82
2022/10/21 11:11:31;;;;;;;14.57;10.60;;;9.20;99.90;8.50;100265;;;;555976;253;24142;-81
2022/10/21 11:13:58;;;;;;;15.93;10.87;;;9.30;99.90;8.60;100274;;;;566242;248;24125;-83
2022/10/21 11:16:44;;;;;;;20.30;11.27;;;9.30;99.90;8.70;100271;;;;571317;247;24155;-82
2022/10/21 11:19:24;;;;;;;15.60;10.23;;;9.40;99.90;8.70;100262;;;;556774;257;24148;-81
2022/10/21 11:21:52;;;;;;;13.93;9.60;;;9.50;99.90;8.70;100266;;;;564116;253;24177;-81
2022/10/21 11:24:38;;;;;;;17.13;13.90;;;9.40;99.90;8.60;100267;;;;551317;258;35595;-83
2022/10/21 11:27:09;;;;;;;18.43;10.73;;;9.40;99.90;8.50;100250;;;;548204;258;24147;-80